sensor_id;sensor_type;location;lat;lon;timestamp;temperature;humidity
4651;DHT22;2338;49.602;8.722;2023-02-01T00:02:36;5.90;99.90
4651;DHT22;2338;49.602;8.722;2023-02-01T00:05:24;5.90;99.90
4651;DHT22;2338;49.602;8.722;2023-02-01T00:08:10;5.90;99.90
4651;DHT22;2338;49.602;8.722;2023-02-01T00:11:00;5.90;99.90
4651;DHT22;2338;49.602;8.722;2023-02-01T00:13:47;5.90;99.90
4651;DHT22;2338;49.602;8.722;2023-02-01T00:16:32;5.90;99.90
4651;DHT22;2338;49.602;8.722;2023-02-01T00:19:18;5.90;99.90
4651;DHT22;2338;49.602;8.722;2023-02-01T00:22:03;5.90;99.90
4651;DHT22;2338;49.602;8.722;2023-02-01T00:24:49;6.00;99.90
4651;DHT22;2338;49.602;8.722;2023-02-01T00:27:35;6.00;99.90
4651;DHT22;2338;49.602;8.722;2023-02-01T00:30:22;5.90;99.90
4651;DHT22;2338;49.602;8.722;2023-02-01T00:33:08;6.00;99.90
4651;DHT22;2338;49.602;8.722;2023-02-01T00:35:56;6.10;99.90
4651;DHT22;2338;49.602;8.722;2023-02-01T00:38:42;6.10;99.90
4651;DHT22;2338;49.602;8.722;2023-02-01T00:41:28;6.00;99.90
4651;DHT22;2338;49.602;8.722;2023-02-01T00:44:13;6.00;99.90
4651;DHT22;2338;49.602;8.722;2023-02-01T00:47:01;6.00;99.90
4651;DHT22;2338;49.602;8.722;2023-02-01T00:49:46;5.90;99.90
4651;DHT22;2338;49.602;8.722;2023-02-01T00:52:32;5.90;99.90
4651;DHT22;2338;49.602;8.722;2023-02-01T00:55:18;5.90;99.90
4651;DHT22;2338;49.602;8.722;2023-02-01T00:58:04;5.90;99.90
4651;DHT22;2338;49.602;8.722;2023-02-01T01:00:50;5.90;99.90
4651;DHT22;2338;49.602;8.722;2023-02-01T01:03:38;5.90;99.90
4651;DHT22;2338;49.602;8.722;2023-02-01T01:06:26;5.90;99.90
4651;DHT22;2338;49.602;8.722;2023-02-01T01:09:12;6.00;99.90
4651;DHT22;2338;49.602;8.722;2023-02-01T01:11:58;6.00;99.90
4651;DHT22;2338;49.602;8.722;2023-02-01T01:14:47;6.10;99.90
4651;DHT22;2338;49.602;8.722;2023-02-01T01:17:32;6.10;99.90
4651;DHT22;2338;49.602;8.722;2023-02-01T01:20:19;6.10;99.90
4651;DHT22;2338;49.602;8.722;2023-02-01T01:23:06;6.10;99.90
4651;DHT22;2338;49.602;8.722;2023-02-01T01:25:52;6.10;99.90
4651;DHT22;2338;49.602;8.722;2023-02-01T01:28:38;6.00;99.90
4651;DHT22;2338;49.602;8.722;2023-02-01T01:31:24;6.10;99.90
4651;DHT22;2338;49.602;8.722;2023-02-01T01:34:09;6.10;99.90
4651;DHT22;2338;49.602;8.722;2023-02-01T01:36:57;6.20;99.90
4651;DHT22;2338;49.602;8.722;2023-02-01T01:39:42;6.20;99.90
4651;DHT22;2338;49.602;8.722;2023-02-01T01:42:28;6.10;99.90
4651;DHT22;2338;49.602;8.722;2023-02-01T01:45:22;6.10;99.90
4651;DHT22;2338;49.602;8.722;2023-02-01T01:48:13;6.10;99.90
4651;DHT22;2338;49.602;8.722;2023-02-01T01:51:02;6.10;99.90
4651;DHT22;2338;49.602;8.722;2023-02-01T01:53:56;6.20;99.90
4651;DHT22;2338;49.602;8.722;2023-02-01T01:56:49;6.10;99.90
4651;DHT22;2338;49.602;8.722;2023-02-01T01:59:38;6.00;99.90
4651;DHT22;2338;49.602;8.722;2023-02-01T02:02:25;6.00;99.90
4651;DHT22;2338;49.602;8.722;2023-02-01T02:05:11;6.10;99.90
4651;DHT22;2338;49.602;8.722;2023-02-01T02:07:59;6.10;99.90
4651;DHT22;2338;49.602;8.722;2023-02-01T02:10:48;6.10;99.90
4651;DHT22;2338;49.602;8.722;2023-02-01T02:13:48;6.10;99.90
4651;DHT22;2338;49.602;8.722;2023-02-01T02:16:54;6.20;99.90
4651;DHT22;2338;49.602;8.722;2023-02-01T02:20:22;6.20;99.90
4651;DHT22;2338;49.602;8.722;2023-02-01T02:30:09;6.20;99.90
4651;DHT22;2338;49.602;8.722;2023-02-01T02:33:47;6.00;99.90
4651;DHT22;2338;49.602;8.722;2023-02-01T02:36:41;6.10;99.90
4651;DHT22;2338;49.602;8.722;2023-02-01T02:39:36;6.10;99.90
4651;DHT22;2338;49.602;8.722;2023-02-01T02:42:29;6.00;99.90
4651;DHT22;2338;49.602;8.722;2023-02-01T02:45:40;6.00;99.90
4651;DHT22;2338;49.602;8.722;2023-02-01T02:48:47;6.00;99.90
4651;DHT22;2338;49.602;8.722;2023-02-01T02:51:41;6.10;99.90
4651;DHT22;2338;49.602;8.722;2023-02-01T02:54:48;6.10;99.90
4651;DHT22;2338;49.602;8.722;2023-02-01T02:57:37;6.00;99.90
4651;DHT22;2338;49.602;8.722;2023-02-01T03:00:42;6.00;99.90
4651;DHT22;2338;49.602;8.722;2023-02-01T03:03:48;5.90;99.90
4651;DHT22;2338;49.602;8.722;2023-02-01T03:06:53;5.90;99.90
4651;DHT22;2338;49.602;8.722;2023-02-01T03:09:40;5.90;99.90
4651;DHT22;2338;49.602;8.722;2023-02-01T03:12:26;5.90;99.90
4651;DHT22;2338;49.602;8.722;2023-02-01T03:15:34;6.00;99.90
4651;DHT22;2338;49.602;8.722;2023-02-01T03:18:26;5.90;99.90
4651;DHT22;2338;49.602;8.722;2023-02-01T03:21:17;6.00;99.90
4651;DHT22;2338;49.602;8.722;2023-02-01T03:24:08;6.00;99.90
4651;DHT22;2338;49.602;8.722;2023-02-01T03:26:55;6.00;99.90
4651;DHT22;2338;49.602;8.722;2023-02-01T03:29:45;6.00;99.90
4651;DHT22;2338;49.602;8.722;2023-02-01T03:32:34;6.00;99.90
4651;DHT22;2338;49.602;8.722;2023-02-01T03:35:40;6.00;99.90
4651;DHT22;2338;49.602;8.722;2023-02-01T03:38:32;6.00;99.90
4651;DHT22;2338;49.602;8.722;2023-02-01T03:41:22;6.00;99.90
4651;DHT22;2338;49.602;8.722;2023-02-01T03:44:13;5.90;99.90
4651;DHT22;2338;49.602;8.722;2023-02-01T03:47:04;5.90;99.90
4651;DHT22;2338;49.602;8.722;2023-02-01T03:49:55;5.90;99.90
4651;DHT22;2338;49.602;8.722;2023-02-01T03:52:45;5.80;99.90
4651;DHT22;2338;49.602;8.722;2023-02-01T03:55:35;5.80;99.90
4651;DHT22;2338;49.602;8.722;2023-02-01T03:58:22;5.80;99.90
4651;DHT22;2338;49.602;8.722;2023-02-01T04:01:09;5.90;99.90
4651;DHT22;2338;49.602;8.722;2023-02-01T04:03:54;5.80;99.90
4651;DHT22;2338;49.602;8.722;2023-02-01T04:06:40;6.00;99.90
4651;DHT22;2338;49.602;8.722;2023-02-01T04:09:26;5.90;99.90
4651;DHT22;2338;49.602;8.722;2023-02-01T04:12:13;5.90;99.90
4651;DHT22;2338;49.602;8.722;2023-02-01T04:14:58;5.90;99.90
4651;DHT22;2338;49.602;8.722;2023-02-01T04:17:44;5.80;99.90
4651;DHT22;2338;49.602;8.722;2023-02-01T04:20:29;5.90;99.90
4651;DHT22;2338;49.602;8.722;2023-02-01T04:23:15;6.00;99.90
4651;DHT22;2338;49.602;8.722;2023-02-01T04:26:01;6.00;99.90
4651;DHT22;2338;49.602;8.722;2023-02-01T04:28:48;6.10;99.90
4651;DHT22;2338;49.602;8.722;2023-02-01T04:31:35;6.10;99.90
4651;DHT22;2338;49.602;8.722;2023-02-01T04:34:20;6.20;99.90
4651;DHT22;2338;49.602;8.722;2023-02-01T04:37:08;6.20;99.90
4651;DHT22;2338;49.602;8.722;2023-02-01T04:39:54;6.30;99.90
4651;DHT22;2338;49.602;8.722;2023-02-01T04:42:40;6.30;99.90
4651;DHT22;2338;49.602;8.722;2023-02-01T04:45:27;6.30;99.90
4651;DHT22;2338;49.602;8.722;2023-02-01T04:48:13;6.20;99.90
4651;DHT22;2338;49.602;8.722;2023-02-01T04:50:58;6.20;99.90
4651;DHT22;2338;49.602;8.722;2023-02-01T04:53:44;6.20;99.90
4651;DHT22;2338;49.602;8.722;2023-02-01T04:56:30;6.20;99.90
4651;DHT22;2338;49.602;8.722;2023-02-01T04:59:16;6.10;99.90
4651;DHT22;2338;49.602;8.722;2023-02-01T05:02:03;6.20;99.90
4651;DHT22;2338;49.602;8.722;2023-02-01T05:04:49;6.20;99.90
4651;DHT22;2338;49.602;8.722;2023-02-01T05:07:35;6.10;99.90
4651;DHT22;2338;49.602;8.722;2023-02-01T05:10:21;6.10;99.90
4651;DHT22;2338;49.602;8.722;2023-02-01T05:13:07;6.10;99.90
4651;DHT22;2338;49.602;8.722;2023-02-01T05:16:11;6.10;99.90
4651;DHT22;2338;49.602;8.722;2023-02-01T05:18:58;6.10;99.90
4651;DHT22;2338;49.602;8.722;2023-02-01T05:21:43;6.10;99.90
4651;DHT22;2338;49.602;8.722;2023-02-01T05:24:29;6.10;99.90
4651;DHT22;2338;49.602;8.722;2023-02-01T05:27:15;6.10;99.90
4651;DHT22;2338;49.602;8.722;2023-02-01T05:30:02;6.10;99.90
4651;DHT22;2338;49.602;8.722;2023-02-01T05:32:50;6.10;99.90
4651;DHT22;2338;49.602;8.722;2023-02-01T05:35:36;6.20;99.90
4651;DHT22;2338;49.602;8.722;2023-02-01T05:38:22;6.20;99.90
4651;DHT22;2338;49.602;8.722;2023-02-01T05:41:08;6.10;99.90
4651;DHT22;2338;49.602;8.722;2023-02-01T05:43:53;6.10;99.90
4651;DHT22;2338;49.602;8.722;2023-02-01T05:46:39;6.10;99.90
4651;DHT22;2338;49.602;8.722;2023-02-01T05:49:25;6.10;99.90
4651;DHT22;2338;49.602;8.722;2023-02-01T05:52:11;6.20;99.90
4651;DHT22;2338;49.602;8.722;2023-02-01T05:54:57;6.20;99.90
4651;DHT22;2338;49.602;8.722;2023-02-01T05:57:43;6.10;99.90
4651;DHT22;2338;49.602;8.722;2023-02-01T06:00:29;6.10;99.90
4651;DHT22;2338;49.602;8.722;2023-02-01T06:03:14;6.10;99.90
4651;DHT22;2338;49.602;8.722;2023-02-01T06:06:00;6.00;99.90
4651;DHT22;2338;49.602;8.722;2023-02-01T06:08:47;6.10;99.90
4651;DHT22;2338;49.602;8.722;2023-02-01T06:11:32;6.10;99.90
4651;DHT22;2338;49.602;8.722;2023-02-01T06:14:18;6.10;99.90
4651;DHT22;2338;49.602;8.722;2023-02-01T06:17:04;6.10;99.90
4651;DHT22;2338;49.602;8.722;2023-02-01T06:19:51;6.20;99.90
4651;DHT22;2338;49.602;8.722;2023-02-01T06:22:36;6.20;99.90
4651;DHT22;2338;49.602;8.722;2023-02-01T06:25:23;6.20;99.90
4651;DHT22;2338;49.602;8.722;2023-02-01T06:28:09;6.20;99.90
4651;DHT22;2338;49.602;8.722;2023-02-01T06:30:55;6.10;99.90
4651;DHT22;2338;49.602;8.722;2023-02-01T06:33:42;6.10;99.90
4651;DHT22;2338;49.602;8.722;2023-02-01T06:36:27;6.20;99.90
4651;DHT22;2338;49.602;8.722;2023-02-01T06:39:13;6.20;99.90
4651;DHT22;2338;49.602;8.722;2023-02-01T06:42:01;6.20;99.90
4651;DHT22;2338;49.602;8.722;2023-02-01T06:44:46;6.20;99.90
4651;DHT22;2338;49.602;8.722;2023-02-01T06:47:32;6.20;99.90
4651;DHT22;2338;49.602;8.722;2023-02-01T06:50:17;6.20;99.90
4651;DHT22;2338;49.602;8.722;2023-02-01T06:53:03;6.20;99.90
4651;DHT22;2338;49.602;8.722;2023-02-01T06:55:53;6.30;99.90
4651;DHT22;2338;49.602;8.722;2023-02-01T06:58:40;6.30;99.90
4651;DHT22;2338;49.602;8.722;2023-02-01T07:01:25;6.30;99.90
4651;DHT22;2338;49.602;8.722;2023-02-01T07:04:12;6.30;99.90
4651;DHT22;2338;49.602;8.722;2023-02-01T07:06:57;6.20;99.90
4651;DHT22;2338;49.602;8.722;2023-02-01T07:09:43;6.20;99.90
4651;DHT22;2338;49.602;8.722;2023-02-01T07:12:29;6.20;99.90
4651;DHT22;2338;49.602;8.722;2023-02-01T07:15:16;6.20;99.90
4651;DHT22;2338;49.602;8.722;2023-02-01T07:18:02;6.20;99.90
4651;DHT22;2338;49.602;8.722;2023-02-01T07:20:51;6.20;99.90
4651;DHT22;2338;49.602;8.722;2023-02-01T07:23:37;6.10;99.90
4651;DHT22;2338;49.602;8.722;2023-02-01T07:26:22;6.10;99.90
4651;DHT22;2338;49.602;8.722;2023-02-01T07:29:08;6.10;99.90
4651;DHT22;2338;49.602;8.722;2023-02-01T07:31:55;6.10;99.90
4651;DHT22;2338;49.602;8.722;2023-02-01T07:34:40;6.10;99.90
4651;DHT22;2338;49.602;8.722;2023-02-01T07:37:26;6.10;99.90
4651;DHT22;2338;49.602;8.722;2023-02-01T07:40:12;6.10;99.90
4651;DHT22;2338;49.602;8.722;2023-02-01T07:42:58;6.10;99.90
4651;DHT22;2338;49.602;8.722;2023-02-01T07:45:50;6.20;99.90
4651;DHT22;2338;49.602;8.722;2023-02-01T07:48:38;6.10;99.90
4651;DHT22;2338;49.602;8.722;2023-02-01T07:51:24;6.10;99.90
4651;DHT22;2338;49.602;8.722;2023-02-01T07:54:09;6.00;99.90
4651;DHT22;2338;49.602;8.722;2023-02-01T07:56:56;6.10;99.90
4651;DHT22;2338;49.602;8.722;2023-02-01T07:59:41;6.10;99.90
4651;DHT22;2338;49.602;8.722;2023-02-01T08:02:41;6.10;99.90
4651;DHT22;2338;49.602;8.722;2023-02-01T08:05:28;6.20;99.90
4651;DHT22;2338;49.602;8.722;2023-02-01T08:08:14;6.30;99.90
4651;DHT22;2338;49.602;8.722;2023-02-01T08:11:01;6.30;99.90
4651;DHT22;2338;49.602;8.722;2023-02-01T08:13:47;6.30;99.90
4651;DHT22;2338;49.602;8.722;2023-02-01T08:16:33;6.20;99.90
4651;DHT22;2338;49.602;8.722;2023-02-01T08:19:21;6.20;99.90
4651;DHT22;2338;49.602;8.722;2023-02-01T08:22:08;6.20;99.90
4651;DHT22;2338;49.602;8.722;2023-02-01T08:24:54;6.20;99.90
4651;DHT22;2338;49.602;8.722;2023-02-01T08:27:45;6.30;99.90
4651;DHT22;2338;49.602;8.722;2023-02-01T08:30:31;6.30;99.90
4651;DHT22;2338;49.602;8.722;2023-02-01T08:33:16;6.30;99.90
4651;DHT22;2338;49.602;8.722;2023-02-01T08:36:03;6.30;99.90
4651;DHT22;2338;49.602;8.722;2023-02-01T08:38:51;6.40;99.90
4651;DHT22;2338;49.602;8.722;2023-02-01T08:41:36;6.40;99.90
4651;DHT22;2338;49.602;8.722;2023-02-01T08:44:22;6.40;99.90
4651;DHT22;2338;49.602;8.722;2023-02-01T08:47:08;6.30;99.90
4651;DHT22;2338;49.602;8.722;2023-02-01T08:49:53;6.30;99.90
4651;DHT22;2338;49.602;8.722;2023-02-01T08:52:39;6.40;99.90
4651;DHT22;2338;49.602;8.722;2023-02-01T08:55:26;6.40;99.90
4651;DHT22;2338;49.602;8.722;2023-02-01T08:58:12;6.40;99.90
4651;DHT22;2338;49.602;8.722;2023-02-01T09:01:03;6.40;99.90
4651;DHT22;2338;49.602;8.722;2023-02-01T09:03:49;6.40;99.90
4651;DHT22;2338;49.602;8.722;2023-02-01T09:06:35;6.50;99.90
4651;DHT22;2338;49.602;8.722;2023-02-01T09:09:20;6.50;99.90
4651;DHT22;2338;49.602;8.722;2023-02-01T09:12:08;6.50;99.90
4651;DHT22;2338;49.602;8.722;2023-02-01T09:14:54;6.50;99.90
4651;DHT22;2338;49.602;8.722;2023-02-01T09:17:39;6.60;99.90
4651;DHT22;2338;49.602;8.722;2023-02-01T09:20:27;6.60;99.90
4651;DHT22;2338;49.602;8.722;2023-02-01T09:23:13;6.60;99.90
4651;DHT22;2338;49.602;8.722;2023-02-01T09:25:59;6.60;99.90
4651;DHT22;2338;49.602;8.722;2023-02-01T09:28:46;6.60;99.90
4651;DHT22;2338;49.602;8.722;2023-02-01T09:31:32;6.70;99.90
4651;DHT22;2338;49.602;8.722;2023-02-01T09:34:18;6.70;99.90
4651;DHT22;2338;49.602;8.722;2023-02-01T09:37:04;6.60;99.90
4651;DHT22;2338;49.602;8.722;2023-02-01T09:39:49;6.60;99.90
4651;DHT22;2338;49.602;8.722;2023-02-01T09:42:48;6.60;99.90
4651;DHT22;2338;49.602;8.722;2023-02-01T09:45:44;6.60;99.90
4651;DHT22;2338;49.602;8.722;2023-02-01T09:48:36;6.70;99.90
4651;DHT22;2338;49.602;8.722;2023-02-01T09:51:27;6.70;99.90
4651;DHT22;2338;49.602;8.722;2023-02-01T09:54:17;6.80;99.90
4651;DHT22;2338;49.602;8.722;2023-02-01T09:57:07;6.80;99.90
4651;DHT22;2338;49.602;8.722;2023-02-01T09:59:57;6.80;99.90
4651;DHT22;2338;49.602;8.722;2023-02-01T10:02:47;6.80;99.90
4651;DHT22;2338;49.602;8.722;2023-02-01T10:05:47;6.80;99.90
4651;DHT22;2338;49.602;8.722;2023-02-01T10:08:54;6.80;99.90
4651;DHT22;2338;49.602;8.722;2023-02-01T10:11:47;6.90;99.90
4651;DHT22;2338;49.602;8.722;2023-02-01T10:14:49;6.80;99.90
4651;DHT22;2338;49.602;8.722;2023-02-01T10:17:54;6.90;99.90
4651;DHT22;2338;49.602;8.722;2023-02-01T10:20:56;6.90;99.90
4651;DHT22;2338;49.602;8.722;2023-02-01T10:24:01;6.90;99.90
4651;DHT22;2338;49.602;8.722;2023-02-01T10:26:53;6.90;99.90
4651;DHT22;2338;49.602;8.722;2023-02-01T10:29:42;6.90;99.90
4651;DHT22;2338;49.602;8.722;2023-02-01T10:32:30;7.00;99.90
4651;DHT22;2338;49.602;8.722;2023-02-01T10:35:21;7.00;99.90
4651;DHT22;2338;49.602;8.722;2023-02-01T10:38:15;6.90;99.90
4651;DHT22;2338;49.602;8.722;2023-02-01T10:41:10;6.90;99.90
4651;DHT22;2338;49.602;8.722;2023-02-01T10:43:57;6.90;99.90
4651;DHT22;2338;49.602;8.722;2023-02-01T10:46:43;6.90;99.90
4651;DHT22;2338;49.602;8.722;2023-02-01T10:49:37;6.90;99.90
4651;DHT22;2338;49.602;8.722;2023-02-01T10:52:33;6.90;99.90
4651;DHT22;2338;49.602;8.722;2023-02-01T10:55:28;6.90;99.90
4651;DHT22;2338;49.602;8.722;2023-02-01T10:58:16;6.90;99.90
4651;DHT22;2338;49.602;8.722;2023-02-01T11:01:03;6.90;99.90
4651;DHT22;2338;49.602;8.722;2023-02-01T11:03:54;7.00;99.90
4651;DHT22;2338;49.602;8.722;2023-02-01T11:06:42;7.00;99.90
4651;DHT22;2338;49.602;8.722;2023-02-01T11:09:30;7.00;99.90
4651;DHT22;2338;49.602;8.722;2023-02-01T11:12:34;7.00;99.90
4651;DHT22;2338;49.602;8.722;2023-02-01T11:15:22;6.90;99.90
4651;DHT22;2338;49.602;8.722;2023-02-01T11:18:16;6.90;99.90
4651;DHT22;2338;49.602;8.722;2023-02-01T11:21:03;7.00;99.90
4651;DHT22;2338;49.602;8.722;2023-02-01T11:23:50;7.00;99.90
4651;DHT22;2338;49.602;8.722;2023-02-01T11:26:40;7.00;99.90
4651;DHT22;2338;49.602;8.722;2023-02-01T11:29:37;7.00;99.90
4651;DHT22;2338;49.602;8.722;2023-02-01T11:32:24;7.00;99.90
4651;DHT22;2338;49.602;8.722;2023-02-01T11:35:14;7.00;99.90
4651;DHT22;2338;49.602;8.722;2023-02-01T11:38:11;7.00;99.90
4651;DHT22;2338;49.602;8.722;2023-02-01T11:41:12;7.00;99.90
4651;DHT22;2338;49.602;8.722;2023-02-01T11:44:01;7.10;99.90
4651;DHT22;2338;49.602;8.722;2023-02-01T11:46:47;7.00;99.90
4651;DHT22;2338;49.602;8.722;2023-02-01T11:49:33;7.00;99.90
4651;DHT22;2338;49.602;8.722;2023-02-01T11:55:45;7.00;99.90
4651;DHT22;2338;49.602;8.722;2023-02-01T11:59:07;7.00;99.90
4651;DHT22;2338;49.602;8.722;2023-02-01T12:02:09;7.00;99.90
4651;DHT22;2338;49.602;8.722;2023-02-01T12:05:08;7.00;99.90
4651;DHT22;2338;49.602;8.722;2023-02-01T12:08:17;7.00;99.90
4651;DHT22;2338;49.602;8.722;2023-02-01T12:11:21;7.10;99.90
4651;DHT22;2338;49.602;8.722;2023-02-01T12:14:24;7.10;99.90
4651;DHT22;2338;49.602;8.722;2023-02-01T12:20:37;7.20;99.90
4651;DHT22;2338;49.602;8.722;2023-02-01T12:23:38;7.30;99.90
4651;DHT22;2338;49.602;8.722;2023-02-01T12:26:47;7.20;99.90
4651;DHT22;2338;49.602;8.722;2023-02-01T12:32:57;7.10;99.90
4651;DHT22;2338;49.602;8.722;2023-02-01T12:35:58;7.10;99.90
4651;DHT22;2338;49.602;8.722;2023-02-01T12:38:53;7.10;99.90
4651;DHT22;2338;49.602;8.722;2023-02-01T12:41:56;7.20;99.90
4651;DHT22;2338;49.602;8.722;2023-02-01T12:44:48;7.20;99.90
4651;DHT22;2338;49.602;8.722;2023-02-01T12:47:39;7.20;99.90
4651;DHT22;2338;49.602;8.722;2023-02-01T12:50:28;7.30;99.90
4651;DHT22;2338;49.602;8.722;2023-02-01T12:53:21;7.20;99.90
4651;DHT22;2338;49.602;8.722;2023-02-01T12:56:12;7.20;99.90
4651;DHT22;2338;49.602;8.722;2023-02-01T12:59:02;7.20;99.90
4651;DHT22;2338;49.602;8.722;2023-02-01T13:01:54;7.20;99.90
4651;DHT22;2338;49.602;8.722;2023-02-01T13:04:53;7.10;99.90
4651;DHT22;2338;49.602;8.722;2023-02-01T13:07:48;7.20;99.90
4651;DHT22;2338;49.602;8.722;2023-02-01T13:10:36;7.20;99.90
4651;DHT22;2338;49.602;8.722;2023-02-01T13:13:30;7.30;99.90
4651;DHT22;2338;49.602;8.722;2023-02-01T13:16:28;7.20;99.90
4651;DHT22;2338;49.602;8.722;2023-02-01T13:19:19;7.20;99.90
4651;DHT22;2338;49.602;8.722;2023-02-01T13:22:10;7.20;99.90
4651;DHT22;2338;49.602;8.722;2023-02-01T13:24:59;7.20;99.90
4651;DHT22;2338;49.602;8.722;2023-02-01T13:27:46;7.20;99.90
4651;DHT22;2338;49.602;8.722;2023-02-01T13:30:39;7.30;99.90
4651;DHT22;2338;49.602;8.722;2023-02-01T13:33:56;7.20;99.90
4651;DHT22;2338;49.602;8.722;2023-02-01T13:37:01;7.30;99.90
4651;DHT22;2338;49.602;8.722;2023-02-01T13:39:59;7.20;99.90
4651;DHT22;2338;49.602;8.722;2023-02-01T13:42:52;7.20;99.90
4651;DHT22;2338;49.602;8.722;2023-02-01T13:45:44;7.20;99.90
4651;DHT22;2338;49.602;8.722;2023-02-01T13:48:36;7.20;99.90
4651;DHT22;2338;49.602;8.722;2023-02-01T13:51:34;7.20;99.90
4651;DHT22;2338;49.602;8.722;2023-02-01T13:54:28;7.20;99.90
4651;DHT22;2338;49.602;8.722;2023-02-01T13:57:34;7.20;99.90
4651;DHT22;2338;49.602;8.722;2023-02-01T14:00:26;7.20;99.90
4651;DHT22;2338;49.602;8.722;2023-02-01T14:03:16;7.20;99.90
4651;DHT22;2338;49.602;8.722;2023-02-01T14:06:35;7.20;99.90
4651;DHT22;2338;49.602;8.722;2023-02-01T14:09:34;7.20;99.90
4651;DHT22;2338;49.602;8.722;2023-02-01T14:12:44;7.20;99.90
4651;DHT22;2338;49.602;8.722;2023-02-01T14:15:30;7.20;99.90
4651;DHT22;2338;49.602;8.722;2023-02-01T14:18:48;7.20;99.90
4651;DHT22;2338;49.602;8.722;2023-02-01T14:21:46;7.20;99.90
4651;DHT22;2338;49.602;8.722;2023-02-01T14:24:36;7.20;99.90
4651;DHT22;2338;49.602;8.722;2023-02-01T14:27:23;7.30;99.90
4651;DHT22;2338;49.602;8.722;2023-02-01T14:30:15;7.30;99.90
4651;DHT22;2338;49.602;8.722;2023-02-01T14:33:12;7.20;99.90
4651;DHT22;2338;49.602;8.722;2023-02-01T14:36:07;7.30;99.90
4651;DHT22;2338;49.602;8.722;2023-02-01T14:38:53;7.30;99.90
4651;DHT22;2338;49.602;8.722;2023-02-01T14:41:41;7.20;99.90
4651;DHT22;2338;49.602;8.722;2023-02-01T14:44:31;7.30;99.90
4651;DHT22;2338;49.602;8.722;2023-02-01T14:47:32;7.30;99.90
4651;DHT22;2338;49.602;8.722;2023-02-01T14:50:31;7.30;99.90
4651;DHT22;2338;49.602;8.722;2023-02-01T14:53:32;7.30;99.90
4651;DHT22;2338;49.602;8.722;2023-02-01T14:56:18;7.30;99.90
4651;DHT22;2338;49.602;8.722;2023-02-01T14:59:12;7.40;99.90
4651;DHT22;2338;49.602;8.722;2023-02-01T15:02:01;7.40;99.90
4651;DHT22;2338;49.602;8.722;2023-02-01T15:04:54;7.40;99.90
4651;DHT22;2338;49.602;8.722;2023-02-01T15:07:39;7.30;99.90
4651;DHT22;2338;49.602;8.722;2023-02-01T15:10:25;7.40;99.90
4651;DHT22;2338;49.602;8.722;2023-02-01T15:13:22;7.40;99.90
4651;DHT22;2338;49.602;8.722;2023-02-01T15:16:13;7.40;99.90
4651;DHT22;2338;49.602;8.722;2023-02-01T15:19:07;7.40;99.90
4651;DHT22;2338;49.602;8.722;2023-02-01T15:21:55;7.40;99.90
4651;DHT22;2338;49.602;8.722;2023-02-01T15:24:41;7.40;99.90
4651;DHT22;2338;49.602;8.722;2023-02-01T15:27:28;7.40;99.90
4651;DHT22;2338;49.602;8.722;2023-02-01T15:30:18;7.50;99.90
4651;DHT22;2338;49.602;8.722;2023-02-01T15:33:13;7.50;99.90
4651;DHT22;2338;49.602;8.722;2023-02-01T15:36:11;7.50;99.90
4651;DHT22;2338;49.602;8.722;2023-02-01T15:39:15;7.60;99.90
4651;DHT22;2338;49.602;8.722;2023-02-01T15:42:11;7.60;99.90
4651;DHT22;2338;49.602;8.722;2023-02-01T15:44:59;7.60;99.90
4651;DHT22;2338;49.602;8.722;2023-02-01T15:47:47;7.60;99.90
4651;DHT22;2338;49.602;8.722;2023-02-01T15:50:39;7.50;99.90
4651;DHT22;2338;49.602;8.722;2023-02-01T15:53:25;7.60;99.90
4651;DHT22;2338;49.602;8.722;2023-02-01T15:56:15;7.50;99.90
4651;DHT22;2338;49.602;8.722;2023-02-01T15:59:04;7.50;99.90
4651;DHT22;2338;49.602;8.722;2023-02-01T16:01:51;7.50;99.90
4651;DHT22;2338;49.602;8.722;2023-02-01T16:04:47;7.50;99.90
4651;DHT22;2338;49.602;8.722;2023-02-01T16:07:36;7.60;99.90
4651;DHT22;2338;49.602;8.722;2023-02-01T16:10:25;7.60;99.90
4651;DHT22;2338;49.602;8.722;2023-02-01T16:13:12;7.60;99.90
4651;DHT22;2338;49.602;8.722;2023-02-01T16:15:57;7.60;99.90
4651;DHT22;2338;49.602;8.722;2023-02-01T16:18:43;7.60;99.90
4651;DHT22;2338;49.602;8.722;2023-02-01T16:21:29;7.60;99.90
4651;DHT22;2338;49.602;8.722;2023-02-01T16:24:16;7.60;99.90
4651;DHT22;2338;49.602;8.722;2023-02-01T16:27:02;7.60;99.90
4651;DHT22;2338;49.602;8.722;2023-02-01T16:29:49;7.50;99.90
4651;DHT22;2338;49.602;8.722;2023-02-01T16:32:35;7.60;99.90
4651;DHT22;2338;49.602;8.722;2023-02-01T16:35:24;7.60;99.90
4651;DHT22;2338;49.602;8.722;2023-02-01T16:38:11;7.60;99.90
4651;DHT22;2338;49.602;8.722;2023-02-01T16:40:59;7.60;99.90
4651;DHT22;2338;49.602;8.722;2023-02-01T16:43:49;7.60;99.90
4651;DHT22;2338;49.602;8.722;2023-02-01T16:46:39;7.60;99.90
4651;DHT22;2338;49.602;8.722;2023-02-01T16:49:25;7.50;99.90
4651;DHT22;2338;49.602;8.722;2023-02-01T16:52:14;7.60;99.90
4651;DHT22;2338;49.602;8.722;2023-02-01T16:55:00;7.60;99.90
4651;DHT22;2338;49.602;8.722;2023-02-01T16:57:48;7.60;99.90
4651;DHT22;2338;49.602;8.722;2023-02-01T17:00:34;7.60;99.90
4651;DHT22;2338;49.602;8.722;2023-02-01T17:03:21;7.60;99.90
4651;DHT22;2338;49.602;8.722;2023-02-01T17:06:09;7.50;99.90
4651;DHT22;2338;49.602;8.722;2023-02-01T17:08:57;7.50;99.90
4651;DHT22;2338;49.602;8.722;2023-02-01T17:11:43;7.60;99.90
4651;DHT22;2338;49.602;8.722;2023-02-01T17:14:32;7.60;99.90
4651;DHT22;2338;49.602;8.722;2023-02-01T17:17:21;7.60;99.90
4651;DHT22;2338;49.602;8.722;2023-02-01T17:20:07;7.60;99.90
4651;DHT22;2338;49.602;8.722;2023-02-01T17:22:53;7.60;99.90
4651;DHT22;2338;49.602;8.722;2023-02-01T17:25:39;7.60;99.90
4651;DHT22;2338;49.602;8.722;2023-02-01T17:28:25;7.50;99.90
4651;DHT22;2338;49.602;8.722;2023-02-01T17:31:14;7.60;99.90
4651;DHT22;2338;49.602;8.722;2023-02-01T17:34:00;7.60;99.90
4651;DHT22;2338;49.602;8.722;2023-02-01T17:36:46;7.60;99.90
4651;DHT22;2338;49.602;8.722;2023-02-01T17:39:32;7.60;99.90
4651;DHT22;2338;49.602;8.722;2023-02-01T17:42:35;7.60;99.90
4651;DHT22;2338;49.602;8.722;2023-02-01T17:45:27;7.70;99.90
4651;DHT22;2338;49.602;8.722;2023-02-01T17:48:19;7.60;99.90
4651;DHT22;2338;49.602;8.722;2023-02-01T17:51:08;7.50;99.90
4651;DHT22;2338;49.602;8.722;2023-02-01T17:53:56;7.60;99.90
4651;DHT22;2338;49.602;8.722;2023-02-01T17:56:42;7.50;99.90
4651;DHT22;2338;49.602;8.722;2023-02-01T17:59:28;7.50;99.90
4651;DHT22;2338;49.602;8.722;2023-02-01T18:02:18;7.50;99.90
4651;DHT22;2338;49.602;8.722;2023-02-01T18:05:12;7.60;99.90
4651;DHT22;2338;49.602;8.722;2023-02-01T18:07:59;7.60;99.90
4651;DHT22;2338;49.602;8.722;2023-02-01T18:10:46;7.60;99.90
4651;DHT22;2338;49.602;8.722;2023-02-01T18:13:32;7.60;99.90
4651;DHT22;2338;49.602;8.722;2023-02-01T18:16:20;7.60;99.90
4651;DHT22;2338;49.602;8.722;2023-02-01T18:19:06;7.60;99.90
4651;DHT22;2338;49.602;8.722;2023-02-01T18:21:53;7.60;99.90
4651;DHT22;2338;49.602;8.722;2023-02-01T18:24:40;7.60;99.90
4651;DHT22;2338;49.602;8.722;2023-02-01T18:27:26;7.60;99.90
4651;DHT22;2338;49.602;8.722;2023-02-01T18:30:13;7.60;99.90
4651;DHT22;2338;49.602;8.722;2023-02-01T18:32:59;7.60;99.90
4651;DHT22;2338;49.602;8.722;2023-02-01T18:35:45;7.60;99.90
4651;DHT22;2338;49.602;8.722;2023-02-01T18:38:32;7.60;99.90
4651;DHT22;2338;49.602;8.722;2023-02-01T18:41:19;7.50;99.90
4651;DHT22;2338;49.602;8.722;2023-02-01T18:44:08;7.50;99.90
4651;DHT22;2338;49.602;8.722;2023-02-01T18:46:57;7.50;99.90
4651;DHT22;2338;49.602;8.722;2023-02-01T18:49:43;7.50;99.90
4651;DHT22;2338;49.602;8.722;2023-02-01T18:52:29;7.60;99.90
4651;DHT22;2338;49.602;8.722;2023-02-01T18:55:16;7.50;99.90
4651;DHT22;2338;49.602;8.722;2023-02-01T18:58:03;7.50;99.90
4651;DHT22;2338;49.602;8.722;2023-02-01T19:00:51;7.60;99.90
4651;DHT22;2338;49.602;8.722;2023-02-01T19:03:37;7.60;99.90
4651;DHT22;2338;49.602;8.722;2023-02-01T19:06:23;7.60;99.90